sensor_id;sensor_type;location;lat;lon;timestamp;P1;durP1;ratioP1;P2;durP2;ratioP2
73170;SDS011;61381;50.118;19.962;2023-11-22T00:03:15;35.15;;;14.50;;
73170;SDS011;61381;50.118;19.962;2023-11-22T00:08:16;45.33;;;17.83;;
73170;SDS011;61381;50.118;19.962;2023-11-22T00:13:23;43.50;;;18.05;;
73170;SDS011;61381;50.118;19.962;2023-11-22T00:18:26;34.10;;;15.82;;
73170;SDS011;61381;50.118;19.962;2023-11-22T00:23:27;30.90;;;13.68;;
73170;SDS011;61381;50.118;19.962;2023-11-22T00:28:28;21.50;;;10.68;;
73170;SDS011;61381;50.118;19.962;2023-11-22T00:33:30;16.90;;;7.60;;
73170;SDS011;61381;50.118;19.962;2023-11-22T00:38:31;33.90;;;14.30;;
73170;SDS011;61381;50.118;19.962;2023-11-22T00:43:32;35.85;;;15.57;;
73170;SDS011;61381;50.118;19.962;2023-11-22T00:48:34;35.10;;;15.75;;
73170;SDS011;61381;50.118;19.962;2023-11-22T00:53:35;42.83;;;16.25;;
73170;SDS011;61381;50.118;19.962;2023-11-22T00:58:36;34.08;;;14.20;;
73170;SDS011;61381;50.118;19.962;2023-11-22T01:03:38;41.05;;;17.35;;
73170;SDS011;61381;50.118;19.962;2023-11-22T01:08:39;38.80;;;16.25;;
73170;SDS011;61381;50.118;19.962;2023-11-22T01:13:40;40.85;;;17.60;;
73170;SDS011;61381;50.118;19.962;2023-11-22T01:18:43;35.13;;;14.82;;
73170;SDS011;61381;50.118;19.962;2023-11-22T01:23:44;24.35;;;10.60;;
73170;SDS011;61381;50.118;19.962;2023-11-22T01:28:45;37.17;;;15.38;;
73170;SDS011;61381;50.118;19.962;2023-11-22T01:33:47;33.03;;;13.63;;
73170;SDS011;61381;50.118;19.962;2023-11-22T01:38:48;26.52;;;13.70;;
73170;SDS011;61381;50.118;19.962;2023-11-22T01:43:49;30.70;;;12.68;;
73170;SDS011;61381;50.118;19.962;2023-11-22T01:48:52;25.05;;;11.27;;
73170;SDS011;61381;50.118;19.962;2023-11-22T01:53:54;36.47;;;13.90;;
73170;SDS011;61381;50.118;19.962;2023-11-22T01:58:57;28.73;;;12.02;;
73170;SDS011;61381;50.118;19.962;2023-11-22T02:04:00;31.00;;;13.50;;
73170;SDS011;61381;50.118;19.962;2023-11-22T02:09:01;20.75;;;10.10;;
73170;SDS011;61381;50.118;19.962;2023-11-22T02:14:02;22.10;;;9.65;;
73170;SDS011;61381;50.118;19.962;2023-11-22T02:19:04;31.60;;;13.02;;
73170;SDS011;61381;50.118;19.962;2023-11-22T02:24:08;24.25;;;12.38;;
73170;SDS011;61381;50.118;19.962;2023-11-22T02:29:10;25.23;;;10.27;;
73170;SDS011;61381;50.118;19.962;2023-11-22T02:34:11;21.85;;;7.97;;
73170;SDS011;61381;50.118;19.962;2023-11-22T02:39:13;32.95;;;11.85;;
73170;SDS011;61381;50.118;19.962;2023-11-22T02:44:14;35.05;;;13.93;;
73170;SDS011;61381;50.118;19.962;2023-11-22T02:49:15;42.03;;;15.15;;
73170;SDS011;61381;50.118;19.962;2023-11-22T02:54:17;42.30;;;17.42;;
73170;SDS011;61381;50.118;19.962;2023-11-22T02:59:18;39.90;;;15.60;;
73170;SDS011;61381;50.118;19.962;2023-11-22T03:04:19;49.55;;;19.60;;
73170;SDS011;61381;50.118;19.962;2023-11-22T03:09:22;33.20;;;14.88;;
73170;SDS011;61381;50.118;19.962;2023-11-22T03:14:22;43.78;;;17.05;;
73170;SDS011;61381;50.118;19.962;2023-11-22T03:19:23;28.02;;;11.35;;
73170;SDS011;61381;50.118;19.962;2023-11-22T03:24:26;52.05;;;22.80;;
73170;SDS011;61381;50.118;19.962;2023-11-22T03:29:27;28.58;;;9.40;;
73170;SDS011;61381;50.118;19.962;2023-11-22T03:34:28;33.97;;;14.00;;
73170;SDS011;61381;50.118;19.962;2023-11-22T03:39:30;36.08;;;14.23;;
73170;SDS011;61381;50.118;19.962;2023-11-22T03:44:31;19.60;;;8.70;;
73170;SDS011;61381;50.118;19.962;2023-11-22T03:49:32;26.25;;;11.57;;
73170;SDS011;61381;50.118;19.962;2023-11-22T03:54:34;48.00;;;16.92;;
73170;SDS011;61381;50.118;19.962;2023-11-22T03:59:35;26.42;;;10.88;;
73170;SDS011;61381;50.118;19.962;2023-11-22T04:04:36;38.55;;;13.40;;
73170;SDS011;61381;50.118;19.962;2023-11-22T04:09:38;12.80;;;6.55;;
73170;SDS011;61381;50.118;19.962;2023-11-22T04:14:39;35.03;;;13.98;;
73170;SDS011;61381;50.118;19.962;2023-11-22T04:19:40;31.85;;;12.27;;
73170;SDS011;61381;50.118;19.962;2023-11-22T04:24:43;29.25;;;13.85;;
73170;SDS011;61381;50.118;19.962;2023-11-22T04:29:43;29.08;;;12.63;;
73170;SDS011;61381;50.118;19.962;2023-11-22T04:34:45;27.50;;;12.70;;
73170;SDS011;61381;50.118;19.962;2023-11-22T04:39:47;40.60;;;15.93;;
73170;SDS011;61381;50.118;19.962;2023-11-22T04:44:48;41.88;;;16.25;;
73170;SDS011;61381;50.118;19.962;2023-11-22T04:49:49;71.65;;;30.38;;
73170;SDS011;61381;50.118;19.962;2023-11-22T04:54:51;43.47;;;16.73;;
73170;SDS011;61381;50.118;19.962;2023-11-22T04:59:52;46.03;;;16.77;;
73170;SDS011;61381;50.118;19.962;2023-11-22T05:04:53;34.15;;;13.40;;
73170;SDS011;61381;50.118;19.962;2023-11-22T05:09:55;52.58;;;20.63;;
73170;SDS011;61381;50.118;19.962;2023-11-22T05:14:56;32.13;;;13.90;;
73170;SDS011;61381;50.118;19.962;2023-11-22T05:19:57;37.75;;;17.98;;
73170;SDS011;61381;50.118;19.962;2023-11-22T05:25:00;37.78;;;16.10;;
73170;SDS011;61381;50.118;19.962;2023-11-22T05:30:01;26.73;;;11.90;;
73170;SDS011;61381;50.118;19.962;2023-11-22T05:35:02;42.47;;;18.27;;
73170;SDS011;61381;50.118;19.962;2023-11-22T05:40:06;23.65;;;11.10;;
73170;SDS011;61381;50.118;19.962;2023-11-22T05:45:08;38.22;;;17.70;;
73170;SDS011;61381;50.118;19.962;2023-11-22T05:50:09;32.38;;;13.43;;
73170;SDS011;61381;50.118;19.962;2023-11-22T05:55:12;42.47;;;20.20;;
73170;SDS011;61381;50.118;19.962;2023-11-22T06:00:13;21.15;;;9.50;;
73170;SDS011;61381;50.118;19.962;2023-11-22T06:05:15;22.25;;;9.68;;
73170;SDS011;61381;50.118;19.962;2023-11-22T06:10:17;46.60;;;18.17;;
73170;SDS011;61381;50.118;19.962;2023-11-22T06:15:18;42.30;;;17.20;;
73170;SDS011;61381;50.118;19.962;2023-11-22T06:20:19;31.25;;;16.00;;
73170;SDS011;61381;50.118;19.962;2023-11-22T06:25:21;37.55;;;16.08;;
73170;SDS011;61381;50.118;19.962;2023-11-22T06:30:22;34.65;;;15.30;;
73170;SDS011;61381;50.118;19.962;2023-11-22T06:35:23;33.40;;;14.88;;
73170;SDS011;61381;50.118;19.962;2023-11-22T06:40:25;28.30;;;11.05;;
73170;SDS011;61381;50.118;19.962;2023-11-22T06:45:26;42.60;;;17.10;;
73170;SDS011;61381;50.118;19.962;2023-11-22T06:50:27;40.15;;;15.52;;
73170;SDS011;61381;50.118;19.962;2023-11-22T06:55:30;33.47;;;13.07;;
73170;SDS011;61381;50.118;19.962;2023-11-22T07:00:31;37.88;;;17.17;;
73170;SDS011;61381;50.118;19.962;2023-11-22T07:05:32;27.05;;;10.35;;
73170;SDS011;61381;50.118;19.962;2023-11-22T07:10:34;21.88;;;9.80;;
73170;SDS011;61381;50.118;19.962;2023-11-22T07:15:35;30.80;;;13.77;;
73170;SDS011;61381;50.118;19.962;2023-11-22T07:20:36;20.42;;;8.25;;
73170;SDS011;61381;50.118;19.962;2023-11-22T07:25:38;21.88;;;9.50;;
73170;SDS011;61381;50.118;19.962;2023-11-22T07:30:39;25.83;;;11.23;;
73170;SDS011;61381;50.118;19.962;2023-11-22T07:35:40;30.55;;;15.35;;
73170;SDS011;61381;50.118;19.962;2023-11-22T07:40:42;28.13;;;14.68;;
73170;SDS011;61381;50.118;19.962;2023-11-22T07:45:43;24.75;;;9.77;;
73170;SDS011;61381;50.118;19.962;2023-11-22T07:50:44;31.73;;;15.15;;
73170;SDS011;61381;50.118;19.962;2023-11-22T07:55:47;20.42;;;9.10;;
73170;SDS011;61381;50.118;19.962;2023-11-22T08:00:48;24.30;;;12.13;;
73170;SDS011;61381;50.118;19.962;2023-11-22T08:05:49;19.05;;;9.55;;
73170;SDS011;61381;50.118;19.962;2023-11-22T08:10:51;22.42;;;9.27;;
73170;SDS011;61381;50.118;19.962;2023-11-22T08:15:52;26.63;;;12.40;;
73170;SDS011;61381;50.118;19.962;2023-11-22T08:20:53;22.00;;;10.60;;
73170;SDS011;61381;50.118;19.962;2023-11-22T08:25:55;30.70;;;9.80;;
73170;SDS011;61381;50.118;19.962;2023-11-22T08:30:56;19.40;;;8.98;;
73170;SDS011;61381;50.118;19.962;2023-11-22T08:35:57;13.82;;;7.03;;
73170;SDS011;61381;50.118;19.962;2023-11-22T08:41:02;15.95;;;7.85;;
73170;SDS011;61381;50.118;19.962;2023-11-22T08:46:03;24.73;;;11.82;;
73170;SDS011;61381;50.118;19.962;2023-11-22T08:51:04;19.80;;;9.18;;
73170;SDS011;61381;50.118;19.962;2023-11-22T08:56:07;11.57;;;6.50;;
73170;SDS011;61381;50.118;19.962;2023-11-22T09:01:09;14.63;;;6.45;;
73170;SDS011;61381;50.118;19.962;2023-11-22T09:06:10;18.00;;;8.07;;
73170;SDS011;61381;50.118;19.962;2023-11-22T09:11:12;20.85;;;9.40;;
73170;SDS011;61381;50.118;19.962;2023-11-22T09:16:13;17.73;;;8.40;;
73170;SDS011;61381;50.118;19.962;2023-11-22T09:21:14;8.60;;;4.25;;
73170;SDS011;61381;50.118;19.962;2023-11-22T09:26:16;20.08;;;9.75;;
73170;SDS011;61381;50.118;19.962;2023-11-22T09:31:17;16.52;;;8.63;;
73170;SDS011;61381;50.118;19.962;2023-11-22T09:36:18;6.70;;;4.35;;
73170;SDS011;61381;50.118;19.962;2023-11-22T09:41:21;20.55;;;9.02;;
73170;SDS011;61381;50.118;19.962;2023-11-22T09:46:22;19.17;;;9.10;;
73170;SDS011;61381;50.118;19.962;2023-11-22T09:51:23;21.15;;;10.02;;
73170;SDS011;61381;50.118;19.962;2023-11-22T09:56:28;21.63;;;10.55;;
73170;SDS011;61381;50.118;19.962;2023-11-22T10:01:30;19.00;;;9.57;;
73170;SDS011;61381;50.118;19.962;2023-11-22T10:06:31;13.50;;;6.43;;
73170;SDS011;61381;50.118;19.962;2023-11-22T10:11:33;21.27;;;10.77;;
73170;SDS011;61381;50.118;19.962;2023-11-22T10:16:35;21.23;;;10.75;;
73170;SDS011;61381;50.118;19.962;2023-11-22T10:21:36;19.58;;;9.57;;
73170;SDS011;61381;50.118;19.962;2023-11-22T10:26:38;13.63;;;6.78;;
73170;SDS011;61381;50.118;19.962;2023-11-22T10:31:39;15.57;;;8.02;;
73170;SDS011;61381;50.118;19.962;2023-11-22T10:36:40;17.33;;;7.95;;
73170;SDS011;61381;50.118;19.962;2023-11-22T10:41:43;8.55;;;4.05;;
73170;SDS011;61381;50.118;19.962;2023-11-22T10:46:45;13.90;;;5.93;;
73170;SDS011;61381;50.118;19.962;2023-11-22T10:51:49;21.73;;;10.25;;
73170;SDS011;61381;50.118;19.962;2023-11-22T10:56:55;19.42;;;6.80;;
73170;SDS011;61381;50.118;19.962;2023-11-22T11:01:58;18.58;;;7.63;;
73170;SDS011;61381;50.118;19.962;2023-11-22T11:07:02;15.48;;;6.60;;
73170;SDS011;61381;50.118;19.962;2023-11-22T11:12:06;21.13;;;8.98;;
73170;SDS011;61381;50.118;19.962;2023-11-22T11:17:07;14.80;;;7.22;;
73170;SDS011;61381;50.118;19.962;2023-11-22T11:22:09;14.93;;;6.85;;
73170;SDS011;61381;50.118;19.962;2023-11-22T11:27:12;13.38;;;6.57;;
73170;SDS011;61381;50.118;19.962;2023-11-22T11:32:15;17.40;;;7.00;;
73170;SDS011;61381;50.118;19.962;2023-11-22T11:37:30;17.25;;;7.68;;
73170;SDS011;61381;50.118;19.962;2023-11-22T11:42:32;13.98;;;5.15;;
73170;SDS011;61381;50.118;19.962;2023-11-22T11:47:33;14.50;;;6.50;;
73170;SDS011;61381;50.118;19.962;2023-11-22T11:52:35;19.00;;;7.47;;
73170;SDS011;61381;50.118;19.962;2023-11-22T11:57:40;13.20;;;5.72;;
73170;SDS011;61381;50.118;19.962;2023-11-22T12:02:41;12.05;;;6.28;;
73170;SDS011;61381;50.118;19.962;2023-11-22T12:07:42;9.95;;;4.85;;
73170;SDS011;61381;50.118;19.962;2023-11-22T12:12:45;17.77;;;7.68;;
73170;SDS011;61381;50.118;19.962;2023-11-22T12:17:47;10.55;;;5.22;;
73170;SDS011;61381;50.118;19.962;2023-11-22T12:22:48;18.55;;;8.32;;
73170;SDS011;61381;50.118;19.962;2023-11-22T12:27:53;13.52;;;4.97;;
73170;SDS011;61381;50.118;19.962;2023-11-22T12:32:54;11.43;;;5.15;;
73170;SDS011;61381;50.118;19.962;2023-11-22T12:37:55;17.88;;;6.90;;
73170;SDS011;61381;50.118;19.962;2023-11-22T12:43:00;14.25;;;6.22;;
73170;SDS011;61381;50.118;19.962;2023-11-22T12:48:02;10.70;;;5.03;;
73170;SDS011;61381;50.118;19.962;2023-11-22T12:53:20;13.25;;;6.20;;
73170;SDS011;61381;50.118;19.962;2023-11-22T12:58:23;11.43;;;5.20;;
73170;SDS011;61381;50.118;19.962;2023-11-22T13:03:25;20.13;;;8.48;;
73170;SDS011;61381;50.118;19.962;2023-11-22T13:08:26;20.85;;;9.43;;
73170;SDS011;61381;50.118;19.962;2023-11-22T13:13:28;24.50;;;11.77;;
73170;SDS011;61381;50.118;19.962;2023-11-22T13:18:29;12.00;;;5.28;;
73170;SDS011;61381;50.118;19.962;2023-11-22T13:23:30;12.13;;;6.32;;
73170;SDS011;61381;50.118;19.962;2023-11-22T13:28:32;13.73;;;6.80;;
73170;SDS011;61381;50.118;19.962;2023-11-22T13:33:33;15.68;;;7.70;;
73170;SDS011;61381;50.118;19.962;2023-11-22T13:38:34;15.88;;;7.43;;
73170;SDS011;61381;50.118;19.962;2023-11-22T13:43:37;15.00;;;6.70;;
73170;SDS011;61381;50.118;19.962;2023-11-22T13:48:38;18.05;;;8.05;;
73170;SDS011;61381;50.118;19.962;2023-11-22T13:53:39;22.60;;;9.18;;
73170;SDS011;61381;50.118;19.962;2023-11-22T13:58:41;17.70;;;5.63;;
73170;SDS011;61381;50.118;19.962;2023-11-22T14:03:42;9.50;;;5.45;;
73170;SDS011;61381;50.118;19.962;2023-11-22T14:08:43;14.45;;;5.65;;
73170;SDS011;61381;50.118;19.962;2023-11-22T14:13:45;40.70;;;13.60;;
73170;SDS011;61381;50.118;19.962;2023-11-22T14:18:46;14.52;;;6.43;;
73170;SDS011;61381;50.118;19.962;2023-11-22T14:23:47;12.05;;;4.93;;
73170;SDS011;61381;50.118;19.962;2023-11-22T14:28:50;18.20;;;8.20;;
73170;SDS011;61381;50.118;19.962;2023-11-22T14:33:52;14.32;;;6.15;;
73170;SDS011;61381;50.118;19.962;2023-11-22T14:38:53;12.80;;;6.80;;
73170;SDS011;61381;50.118;19.962;2023-11-22T14:43:56;12.15;;;6.00;;
73170;SDS011;61381;50.118;19.962;2023-11-22T14:48:57;10.73;;;5.53;;
73170;SDS011;61381;50.118;19.962;2023-11-22T14:53:58;12.82;;;5.65;;
73170;SDS011;61381;50.118;19.962;2023-11-22T14:59:00;13.65;;;6.63;;
73170;SDS011;61381;50.118;19.962;2023-11-22T15:04:01;11.77;;;6.43;;
73170;SDS011;61381;50.118;19.962;2023-11-22T15:09:02;17.48;;;8.07;;
73170;SDS011;61381;50.118;19.962;2023-11-22T15:14:05;16.27;;;7.90;;
73170;SDS011;61381;50.118;19.962;2023-11-22T15:19:06;13.18;;;4.68;;
73170;SDS011;61381;50.118;19.962;2023-11-22T15:24:07;11.43;;;4.82;;
73170;SDS011;61381;50.118;19.962;2023-11-22T15:29:09;5.05;;;3.47;;
73170;SDS011;61381;50.118;19.962;2023-11-22T15:34:10;8.35;;;4.35;;
73170;SDS011;61381;50.118;19.962;2023-11-22T15:39:11;10.73;;;5.05;;
73170;SDS011;61381;50.118;19.962;2023-11-22T15:44:13;5.45;;;2.83;;
73170;SDS011;61381;50.118;19.962;2023-11-22T15:49:15;8.93;;;4.95;;
73170;SDS011;61381;50.118;19.962;2023-11-22T15:54:16;12.80;;;5.38;;
73170;SDS011;61381;50.118;19.962;2023-11-22T15:59:19;13.20;;;6.28;;
73170;SDS011;61381;50.118;19.962;2023-11-22T16:04:20;9.10;;;4.15;;
73170;SDS011;61381;50.118;19.962;2023-11-22T16:09:21;13.27;;;6.78;;
73170;SDS011;61381;50.118;19.962;2023-11-22T16:14:23;8.15;;;5.18;;
73170;SDS011;61381;50.118;19.962;2023-11-22T16:19:24;9.95;;;4.60;;
73170;SDS011;61381;50.118;19.962;2023-11-22T16:24:25;8.20;;;3.65;;
73170;SDS011;61381;50.118;19.962;2023-11-22T16:29:28;8.10;;;4.40;;
73170;SDS011;61381;50.118;19.962;2023-11-22T16:34:29;6.57;;;3.55;;
73170;SDS011;61381;50.118;19.962;2023-11-22T16:39:30;8.43;;;4.68;;
73170;SDS011;61381;50.118;19.962;2023-11-22T16:44:32;11.02;;;6.30;;
73170;SDS011;61381;50.118;19.962;2023-11-22T16:49:33;7.45;;;4.05;;
73170;SDS011;61381;50.118;19.962;2023-11-22T16:54:36;5.80;;;2.83;;
73170;SDS011;61381;50.118;19.962;2023-11-22T16:59:39;6.95;;;3.03;;
73170;SDS011;61381;50.118;19.962;2023-11-22T17:04:40;8.27;;;4.43;;
73170;SDS011;61381;50.118;19.962;2023-11-22T17:09:42;10.80;;;5.07;;
73170;SDS011;61381;50.118;19.962;2023-11-22T17:14:45;8.10;;;4.82;;
73170;SDS011;61381;50.118;19.962;2023-11-22T17:19:46;10.75;;;5.13;;
73170;SDS011;61381;50.118;19.962;2023-11-22T17:24:47;7.22;;;4.40;;
73170;SDS011;61381;50.118;19.962;2023-11-22T17:29:50;10.73;;;5.10;;
73170;SDS011;61381;50.118;19.962;2023-11-22T17:34:51;8.93;;;4.85;;
73170;SDS011;61381;50.118;19.962;2023-11-22T17:39:52;11.65;;;5.40;;
73170;SDS011;61381;50.118;19.962;2023-11-22T17:44:54;13.73;;;6.80;;
73170;SDS011;61381;50.118;19.962;2023-11-22T17:49:55;8.23;;;4.68;;
73170;SDS011;61381;50.118;19.962;2023-11-22T17:54:56;8.10;;;5.03;;
73170;SDS011;61381;50.118;19.962;2023-11-22T17:59:58;13.05;;;5.63;;
73170;SDS011;61381;50.118;19.962;2023-11-22T18:04:59;10.70;;;6.05;;
73170;SDS011;61381;50.118;19.962;2023-11-22T18:10:00;9.02;;;4.82;;
73170;SDS011;61381;50.118;19.962;2023-11-22T18:15:03;15.85;;;7.65;;
73170;SDS011;61381;50.118;19.962;2023-11-22T18:20:05;15.80;;;6.50;;
73170;SDS011;61381;50.118;19.962;2023-11-22T18:25:07;17.67;;;7.18;;
73170;SDS011;61381;50.118;19.962;2023-11-22T18:30:10;15.05;;;7.43;;
73170;SDS011;61381;50.118;19.962;2023-11-22T18:35:11;13.20;;;7.38;;
73170;SDS011;61381;50.118;19.962;2023-11-22T18:40:12;10.35;;;4.63;;
73170;SDS011;61381;50.118;19.962;2023-11-22T18:45:15;6.72;;;3.72;;
73170;SDS011;61381;50.118;19.962;2023-11-22T18:50:15;16.52;;;8.10;;
73170;SDS011;61381;50.118;19.962;2023-11-22T18:55:17;9.85;;;5.35;;
73170;SDS011;61381;50.118;19.962;2023-11-22T19:00:19;13.50;;;7.20;;
73170;SDS011;61381;50.118;19.962;2023-11-22T19:05:20;16.38;;;8.25;;
73170;SDS011;61381;50.118;19.962;2023-11-22T19:10:21;10.93;;;5.88;;
73170;SDS011;61381;50.118;19.962;2023-11-22T19:15:24;12.70;;;6.43;;
73170;SDS011;61381;50.118;19.962;2023-11-22T19:20:25;13.90;;;6.70;;
73170;SDS011;61381;50.118;19.962;2023-11-22T19:25:25;14.70;;;7.25;;
73170;SDS011;61381;50.118;19.962;2023-11-22T19:30:28;7.93;;;4.95;;
73170;SDS011;61381;50.118;19.962;2023-11-22T19:35:32;13.93;;;5.70;;
73170;SDS011;61381;50.118;19.962;2023-11-22T19:40:33;5.40;;;4.05;;
73170;SDS011;61381;50.118;19.962;2023-11-22T19:45:36;10.90;;;5.35;;
73170;SDS011;61381;50.118;19.962;2023-11-22T19:50:37;8.02;;;4.35;;
73170;SDS011;61381;50.118;19.962;2023-11-22T19:55:38;13.57;;;6.93;;
73170;SDS011;61381;50.118;19.962;2023-11-22T20:00:40;12.45;;;5.93;;
73170;SDS011;61381;50.118;19.962;2023-11-22T20:05:45;18.65;;;8.93;;
73170;SDS011;61381;50.118;19.962;2023-11-22T20:10:46;18.92;;;9.20;;
73170;SDS011;61381;50.118;19.962;2023-11-22T20:15:48;12.60;;;6.40;;
73170;SDS011;61381;50.118;19.962;2023-11-22T20:20:49;12.68;;;6.20;;
73170;SDS011;61381;50.118;19.962;2023-11-22T20:25:50;14.60;;;7.45;;
73170;SDS011;61381;50.118;19.962;2023-11-22T20:30:52;16.02;;;7.22;;
73170;SDS011;61381;50.118;19.962;2023-11-22T20:35:53;12.32;;;6.03;;
73170;SDS011;61381;50.118;19.962;2023-11-22T20:40:54;14.45;;;5.93;;
73170;SDS011;61381;50.118;19.962;2023-11-22T20:45:57;11.73;;;7.18;;
73170;SDS011;61381;50.118;19.962;2023-11-22T20:50:58;16.25;;;6.15;;
73170;SDS011;61381;50.118;19.962;2023-11-22T20:55:59;14.75;;;6.60;;
73170;SDS011;61381;50.118;19.962;2023-11-22T21:01:01;16.35;;;6.95;;
73170;SDS011;61381;50.118;19.962;2023-11-22T21:06:02;12.27;;;5.95;;
73170;SDS011;61381;50.118;19.962;2023-11-22T21:11:03;17.05;;;6.85;;
73170;SDS011;61381;50.118;19.962;2023-11-22T21:16:06;11.27;;;6.25;;
73170;SDS011;61381;50.118;19.962;2023-11-22T21:21:07;12.88;;;6.75;;
73170;SDS011;61381;50.118;19.962;2023-11-22T21:26:13;16.27;;;7.53;;
73170;SDS011;61381;50.118;19.962;2023-11-22T21:31:17;10.82;;;5.47;;
73170;SDS011;61381;50.118;19.962;2023-11-22T21:36:18;9.02;;;5.22;;
73170;SDS011;61381;50.118;19.962;2023-11-22T21:41:19;8.35;;;4.80;;
73170;SDS011;61381;50.118;19.962;2023-11-22T21:46:22;10.88;;;5.50;;
73170;SDS011;61381;50.118;19.962;2023-11-22T21:51:27;10.30;;;5.20;;
73170;SDS011;61381;50.118;19.962;2023-11-22T21:56:29;14.77;;;7.38;;
73170;SDS011;61381;50.118;19.962;2023-11-22T22:01:31;13.70;;;5.47;;
73170;SDS011;61381;50.118;19.962;2023-11-22T22:06:32;9.63;;;5.30;;
73170;SDS011;61381;50.118;19.962;2023-11-22T22:11:33;8.43;;;4.25;;
73170;SDS011;61381;50.118;19.962;2023-11-22T22:16:36;9.35;;;4.82;;
73170;SDS011;61381;50.118;19.962;2023-11-22T22:21:37;13.32;;;4.47;;
73170;SDS011;61381;50.118;19.962;2023-11-22T22:26:38;14.93;;;6.78;;
73170;SDS011;61381;50.118;19.962;2023-11-22T22:31:41;11.00;;;5.60;;
73170;SDS011;61381;50.118;19.962;2023-11-22T22:36:42;13.45;;;6.82;;
73170;SDS011;61381;50.118;19.962;2023-11-22T22:41:43;16.50;;;7.25;;
73170;SDS011;61381;50.118;19.962;2023-11-22T22:46:45;15.00;;;7.22;;
73170;SDS011;61381;50.118;19.962;2023-11-22T22:51:46;15.50;;;6.60;;
73170;SDS011;61381;50.118;19.962;2023-11-22T22:56:47;14.93;;;6.22;;
73170;SDS011;61381;50.118;19.962;2023-11-22T23:01:49;13.88;;;6.43;;
73170;SDS011;61381;50.118;19.962;2023-11-22T23:06:50;16.83;;;7.82;;
73170;SDS011;61381;50.118;19.962;2023-11-22T23:11:53;11.43;;;6.53;;
73170;SDS011;61381;50.118;19.962;2023-11-22T23:16:55;15.07;;;6.38;;
73170;SDS011;61381;50.118;19.962;2023-11-22T23:21:56;12.15;;;6.57;;
73170;SDS011;61381;50.118;19.962;2023-11-22T23:26:57;14.32;;;6.88;;
73170;SDS011;61381;50.118;19.962;2023-11-22T23:31:59;15.75;;;7.13;;
73170;SDS011;61381;50.118;19.962;2023-11-22T23:37:00;12.70;;;5.50;;
73170;SDS011;61381;50.118;19.962;2023-11-22T23:42:01;10.02;;;4.13;;
73170;SDS011;61381;50.118;19.962;2023-11-22T23:47:04;13.07;;;6.10;;
73170;SDS011;61381;50.118;19.962;2023-11-22T23:52:05;12.10;;;4.20;;
73170;SDS011;61381;50.118;19.962;2023-11-22T23:57:06;11.15;;;6.25;;
